Time;durP1;ratioP1;P1;durP2;ratioP2;P2;SDS_P1;SDS_P2;PMS_P1;PMS_P2;Temp;Humidity;BMP_temperature;BMP_pressure;BME280_temperature;BME280_humidity;BME280_pressure;Samples;Min_cycle;Max_cycle;Signal;HPM_P1;HPM_P2
2021/11/09 00:01:14;;;;;;;94.28;23.95;;;;;;;;;;5051123;28;20025;-65
2021/11/09 00:03:47;;;;;;;77.90;21.83;;;;;;;;;;5051893;28;20429;-65
2021/11/09 00:06:20;;;;;;;56.65;17.15;;;;;;;;;;5058083;28;20029;-65
2021/11/09 00:08:55;;;;;;;41.00;12.88;;;;;;;;;;5049219;28;20060;-65
2021/11/09 00:11:21;;;;;;;35.80;12.07;;;;;;;;;;5050657;28;20429;-65
2021/11/09 00:13:47;;;;;;;34.50;11.35;;;;;;;;;;5050050;28;20088;-65
2021/11/09 00:16:14;;;;;;;29.80;9.75;;;;;;;;;;5051169;28;20060;-65
2021/11/09 00:18:41;;;;;;;21.77;9.43;;;;;;;;;;5051607;28;20064;-65
2021/11/09 00:21:07;;;;;;;22.30;9.57;;;;;;;;;;5050431;28;20017;-65
2021/11/09 00:23:33;;;;;;;28.45;10.60;;;;;;;;;;5048694;28;20047;-65
2021/11/09 00:25:59;;;;;;;20.67;9.45;;;;;;;;;;5047739;28;20029;-65
2021/11/09 00:28:25;;;;;;;27.70;9.70;;;;;;;;;;5051767;28;20024;-65
2021/11/09 00:30:51;;;;;;;25.67;10.57;;;;;;;;;;5050239;28;20115;-65
2021/11/09 00:33:17;;;;;;;36.67;11.93;;;;;;;;;;5051482;28;20120;-65
2021/11/09 00:35:43;;;;;;;36.67;12.35;;;;;;;;;;5053502;28;20407;-65
2021/11/09 00:38:10;;;;;;;25.50;10.32;;;;;;;;;;5053764;28;20397;-65
2021/11/09 00:40:37;;;;;;;21.63;9.15;;;;;;;;;;5050715;28;20107;-65
2021/11/09 00:43:05;;;;;;;24.48;9.18;;;;;;;;;;5043153;28;20060;-64
2021/11/09 00:45:31;;;;;;;29.92;9.45;;;;;;;;;;5052411;28;20029;-64
2021/11/09 00:47:57;;;;;;;21.70;10.25;;;;;;;;;;5050152;28;20489;-65
2021/11/09 00:50:24;;;;;;;27.35;11.02;;;;;;;;;;5050200;28;20528;-65
2021/11/09 00:52:50;;;;;;;29.20;10.93;;;;;;;;;;5048578;28;20036;-65
2021/11/09 00:55:16;;;;;;;28.02;10.95;;;;;;;;;;5049145;28;20074;-65
2021/11/09 00:57:43;;;;;;;22.88;9.05;;;;;;;;;;5052282;28;20041;-65
2021/11/09 01:00:13;;;;;;;28.00;9.65;;;;;;;;;;5051061;28;20031;-65
2021/11/09 01:02:40;;;;;;;17.40;7.88;;;;;;;;;;5046802;28;20021;-64
2021/11/09 01:05:06;;;;;;;21.80;9.13;;;;;;;;;;5050860;28;20414;-65
2021/11/09 01:07:32;;;;;;;23.55;8.73;;;;;;;;;;5050075;28;20021;-65
2021/11/09 01:09:58;;;;;;;22.70;8.38;;;;;;;;;;5049880;28;20025;-65
2021/11/09 01:12:24;;;;;;;19.48;7.60;;;;;;;;;;5051333;28;20040;-65
2021/11/09 01:14:50;;;;;;;20.83;7.35;;;;;;;;;;5047174;28;20045;-65
2021/11/09 01:17:16;;;;;;;16.48;6.70;;;;;;;;;;5050422;28;20037;-65
2021/11/09 01:19:43;;;;;;;24.65;10.60;;;;;;;;;;5048808;28;20051;-65
2021/11/09 01:22:10;;;;;;;24.98;9.70;;;;;;;;;;5046566;28;20051;-65
2021/11/09 01:24:37;;;;;;;20.33;8.10;;;;;;;;;;5047816;28;20052;-65
2021/11/09 01:27:03;;;;;;;18.42;9.30;;;;;;;;;;5050593;28;20150;-65
2021/11/09 01:29:29;;;;;;;23.38;8.23;;;;;;;;;;5045898;28;20074;-65
2021/11/09 01:31:55;;;;;;;16.88;8.07;;;;;;;;;;5045202;28;20401;-65
2021/11/09 01:34:21;;;;;;;15.40;6.22;;;;;;;;;;5047549;28;20389;-65
2021/11/09 01:36:47;;;;;;;15.70;7.85;;;;;;;;;;5057526;28;20022;-65
2021/11/09 01:39:14;;;;;;;16.05;7.75;;;;;;;;;;5048483;28;20036;-65
2021/11/09 01:41:41;;;;;;;17.05;7.45;;;;;;;;;;5046874;28;20068;-65
2021/11/09 01:44:07;;;;;;;15.23;7.50;;;;;;;;;;5047227;28;20060;-65
2021/11/09 01:46:34;;;;;;;13.02;6.05;;;;;;;;;;5046501;28;20021;-65
2021/11/09 01:49:00;;;;;;;13.50;5.88;;;;;;;;;;5046446;28;20434;-65
2021/11/09 01:51:27;;;;;;;13.82;6.50;;;;;;;;;;5048895;28;20029;-65
2021/11/09 01:53:54;;;;;;;13.82;5.88;;;;;;;;;;5045545;28;20469;-65
2021/11/09 01:56:22;;;;;;;13.55;5.38;;;;;;;;;;5049377;28;20055;-65
2021/11/09 01:58:48;;;;;;;18.63;9.10;;;;;;;;;;5050309;28;20103;-64
2021/11/09 02:01:16;;;;;;;14.80;7.35;;;;;;;;;;5047809;28;20041;-64
2021/11/09 02:03:44;;;;;;;17.00;7.90;;;;;;;;;;5049510;28;20029;-64
2021/11/09 02:06:11;;;;;;;23.45;7.63;;;;;;;;;;5057155;28;20032;-65
2021/11/09 02:08:37;;;;;;;16.15;7.28;;;;;;;;;;5048766;28;20449;-65
2021/11/09 02:11:03;;;;;;;29.65;12.75;;;;;;;;;;5049438;28;20029;-65
2021/11/09 02:13:29;;;;;;;14.68;6.10;;;;;;;;;;5048886;28;20044;-65
2021/11/09 02:15:57;;;;;;;15.02;7.10;;;;;;;;;;5048061;28;20053;-64
2021/11/09 02:18:23;;;;;;;13.88;7.53;;;;;;;;;;5049994;28;20021;-65
2021/11/09 02:20:59;;;;;;;15.07;6.70;;;;;;;;;;5046958;28;20091;-65
2021/11/09 02:23:26;;;;;;;17.67;7.60;;;;;;;;;;5044644;28;20490;-65
2021/11/09 02:25:52;;;;;;;12.43;5.72;;;;;;;;;;5048866;28;20365;-64
2021/11/09 02:28:18;;;;;;;14.13;5.53;;;;;;;;;;5049945;28;20048;-64
2021/11/09 02:30:45;;;;;;;12.75;5.07;;;;;;;;;;5049614;28;20037;-65
2021/11/09 02:33:11;;;;;;;15.60;7.35;;;;;;;;;;5048419;28;20041;-66
2021/11/09 02:35:38;;;;;;;14.43;6.72;;;;;;;;;;5048931;28;20029;-65
2021/11/09 02:38:04;;;;;;;18.77;7.45;;;;;;;;;;5054455;28;20020;-64
2021/11/09 02:40:31;;;;;;;15.55;7.80;;;;;;;;;;5047224;28;20392;-64
2021/11/09 02:43:03;;;;;;;17.60;7.88;;;;;;;;;;5048151;28;20018;-64
2021/11/09 02:45:39;;;;;;;14.80;6.88;;;;;;;;;;5066328;28;20085;-65
2021/11/09 02:50:49;;;;;;;13.20;6.57;;;;;;;;;;5047318;28;20485;-65
2021/11/09 02:55:55;;;;;;;12.95;5.93;;;;;;;;;;5049064;28;20774;-65
2021/11/09 02:59:02;;;;;;;14.85;7.00;;;;;;;;;;5047426;28;20030;-65
2021/11/09 03:04:28;;;;;;;14.10;6.72;;;;;;;;;;5053585;28;20037;-64
2021/11/09 03:06:39;;;;;;;15.55;7.55;;;;;;;;;;5058912;28;20041;-65
2021/11/09 03:11:37;;;;;;;17.55;7.75;;;;;;;;;;5050692;28;20025;-64
2021/11/09 03:14:03;;;;;;;17.27;8.70;;;;;;;;;;5050819;28;20032;-65
2021/11/09 03:16:33;;;;;;;19.55;8.55;;;;;;;;;;5051533;28;20052;-65
2021/11/09 03:46:33;;;;;;;9.55;4.22;;;;;;;;;;5051498;28;20071;-65
2021/11/09 03:49:01;;;;;;;11.57;4.63;;;;;;;;;;5050293;28;20036;-65
2021/11/09 03:51:27;;;;;;;15.98;5.07;;;;;;;;;;5053549;28;20021;-65
2021/11/09 03:53:58;;;;;;;11.75;4.55;;;;;;;;;;5049731;28;20037;-66
2021/11/09 03:56:29;;;;;;;13.07;4.47;;;;;;;;;;5051476;28;20540;-65
2021/11/09 03:58:58;;;;;;;12.15;5.20;;;;;;;;;;5049992;28;20073;-65
2021/11/09 04:01:32;;;;;;;11.40;5.15;;;;;;;;;;5049293;28;20052;-65
2021/11/09 04:04:27;;;;;;;12.38;5.32;;;;;;;;;;5049568;28;20030;-65
2021/11/09 04:07:06;;;;;;;9.75;4.55;;;;;;;;;;5059908;28;20112;-65
2021/11/09 04:09:52;;;;;;;10.82;4.97;;;;;;;;;;5049377;28;20108;-65
2021/11/09 04:12:31;;;;;;;11.95;4.85;;;;;;;;;;5049849;28;20416;-65
2021/11/09 04:17:56;;;;;;;11.77;5.45;;;;;;;;;;5050660;28;20037;-66
2021/11/09 04:25:49;;;;;;;13.10;5.47;;;;;;;;;;5051077;28;20048;-66
2021/11/09 04:31:04;;;;;;;12.63;5.18;;;;;;;;;;5050530;28;20025;-67
2021/11/09 04:34:02;;;;;;;11.43;4.55;;;;;;;;;;5051953;28;20037;-67
2021/11/09 05:10:29;;;;;;;10.32;3.65;;;;;;;;;;5048906;28;20036;-66
2021/11/09 05:12:55;;;;;;;10.35;2.97;;;;;;;;;;5064962;28;20025;-66
2021/11/09 05:15:21;;;;;;;6.25;3.40;;;;;;;;;;5050546;28;20033;-66
2021/11/09 05:17:47;;;;;;;9.02;3.50;;;;;;;;;;5048278;28;20028;-66
2021/11/09 05:20:13;;;;;;;8.85;4.25;;;;;;;;;;5047068;28;20345;-66
2021/11/09 05:22:39;;;;;;;12.25;4.80;;;;;;;;;;5047376;28;20477;-66
2021/11/09 05:25:06;;;;;;;10.32;4.10;;;;;;;;;;5049468;28;20036;-66
2021/11/09 05:27:32;;;;;;;11.18;4.20;;;;;;;;;;5053391;28;20083;-66
2021/11/09 05:29:58;;;;;;;9.95;4.72;;;;;;;;;;5048445;28;20036;-66
2021/11/09 05:32:24;;;;;;;10.68;4.15;;;;;;;;;;5048089;28;20475;-66
2021/11/09 05:34:50;;;;;;;13.35;5.43;;;;;;;;;;5047050;28;20045;-66
2021/11/09 05:37:22;;;;;;;9.65;4.80;;;;;;;;;;5057554;28;20048;-66
2021/11/09 05:39:51;;;;;;;8.80;4.43;;;;;;;;;;5050306;28;20559;-66
2021/11/09 05:42:17;;;;;;;15.30;4.35;;;;;;;;;;5049369;28;20021;-66
2021/11/09 05:44:44;;;;;;;10.95;4.10;;;;;;;;;;5047505;28;20406;-66
2021/11/09 05:47:10;;;;;;;8.02;4.00;;;;;;;;;;5049283;28;20096;-66
2021/11/09 05:49:36;;;;;;;10.40;4.28;;;;;;;;;;5050125;28;20317;-66
2021/11/09 05:52:02;;;;;;;9.18;4.65;;;;;;;;;;5047340;28;20029;-66
2021/11/09 05:54:29;;;;;;;9.48;4.55;;;;;;;;;;5046917;28;20040;-66
2021/11/09 05:56:55;;;;;;;9.52;3.65;;;;;;;;;;5049385;28;20119;-66
2021/11/09 05:59:21;;;;;;;9.75;4.20;;;;;;;;;;5047120;28;20071;-68
2021/11/09 06:01:47;;;;;;;12.25;4.93;;;;;;;;;;5047599;28;20461;-66
2021/11/09 06:04:13;;;;;;;10.57;5.32;;;;;;;;;;5047627;28;20025;-66
2021/11/09 06:06:39;;;;;;;12.10;5.50;;;;;;;;;;5059189;28;20059;-66
2021/11/09 06:09:06;;;;;;;10.27;4.82;;;;;;;;;;5049902;28;20061;-66
2021/11/09 06:11:32;;;;;;;11.32;4.03;;;;;;;;;;5047695;28;20037;-66
2021/11/09 06:13:58;;;;;;;7.32;3.45;;;;;;;;;;5047507;28;20041;-67
2021/11/09 06:16:24;;;;;;;11.93;4.70;;;;;;;;;;5048243;28;20037;-66
2021/11/09 06:18:50;;;;;;;9.88;4.18;;;;;;;;;;5049618;28;20093;-66
2021/11/09 06:21:16;;;;;;;9.27;4.32;;;;;;;;;;5049035;28;20047;-66
2021/11/09 06:23:42;;;;;;;9.27;3.72;;;;;;;;;;5047621;28;20492;-68
2021/11/09 06:26:08;;;;;;;11.02;3.22;;;;;;;;;;5047756;28;20530;-69
2021/11/09 06:28:34;;;;;;;7.93;3.47;;;;;;;;;;5047187;28;20029;-68
2021/11/09 06:31:01;;;;;;;21.38;11.13;;;;;;;;;;5047342;28;20077;-65
2021/11/09 06:33:27;;;;;;;22.38;10.07;;;;;;;;;;5049083;28;20381;-66
2021/11/09 06:35:53;;;;;;;25.20;11.10;;;;;;;;;;5054077;28;20021;-67
2021/11/09 06:38:20;;;;;;;20.80;10.20;;;;;;;;;;5056117;28;20404;-66
2021/11/09 06:40:46;;;;;;;19.15;8.35;;;;;;;;;;5051018;28;20368;-66
2021/11/09 06:43:12;;;;;;;22.33;9.52;;;;;;;;;;5050834;28;20524;-66
2021/11/09 06:45:38;;;;;;;20.88;10.13;;;;;;;;;;5055008;28;20040;-67
2021/11/09 06:48:05;;;;;;;18.95;9.48;;;;;;;;;;5052080;28;20032;-67
2021/11/09 06:50:32;;;;;;;13.82;7.20;;;;;;;;;;5051211;28;20047;-67
2021/11/09 06:52:58;;;;;;;18.15;7.45;;;;;;;;;;5051229;28;20074;-67
2021/11/09 06:55:24;;;;;;;11.75;5.85;;;;;;;;;;5050145;28;20044;-68
2021/11/09 06:57:50;;;;;;;13.35;5.82;;;;;;;;;;5054380;28;20017;-67
2021/11/09 07:00:18;;;;;;;14.90;5.95;;;;;;;;;;5052999;28;20029;-66
2021/11/09 07:02:44;;;;;;;14.43;6.67;;;;;;;;;;5051213;28;20033;-66
2021/11/09 07:05:10;;;;;;;18.23;7.47;;;;;;;;;;5050528;28;20266;-68
2021/11/09 07:07:37;;;;;;;15.05;8.55;;;;;;;;;;5060168;28;20040;-68
2021/11/09 07:10:04;;;;;;;17.95;6.63;;;;;;;;;;5050303;28;20167;-68
2021/11/09 07:12:30;;;;;;;14.13;7.13;;;;;;;;;;5054063;28;20028;-67
2021/11/09 07:14:56;;;;;;;14.90;6.72;;;;;;;;;;5050718;28;20047;-68
2021/11/09 07:17:22;;;;;;;15.90;6.82;;;;;;;;;;5051342;28;20025;-66
2021/11/09 07:19:50;;;;;;;17.63;6.95;;;;;;;;;;5050755;28;20025;-67
2021/11/09 07:22:18;;;;;;;12.48;6.32;;;;;;;;;;5050732;28;20033;-68
2021/11/09 07:24:44;;;;;;;10.55;5.15;;;;;;;;;;5052528;28;20028;-68
2021/11/09 07:27:10;;;;;;;11.02;4.55;;;;;;;;;;5053069;28;20477;-68
2021/11/09 07:29:36;;;;;;;11.70;5.10;;;;;;;;;;5049801;28;20104;-68
2021/11/09 07:32:03;;;;;;;8.45;4.75;;;;;;;;;;5050183;28;20025;-68
2021/11/09 07:34:29;;;;;;;11.43;5.00;;;;;;;;;;5050171;28;20056;-68
2021/11/09 07:36:55;;;;;;;11.82;4.72;;;;;;;;;;5060795;28;20064;-68
2021/11/09 07:39:21;;;;;;;10.57;3.75;;;;;;;;;;5051278;28;20032;-66
2021/11/09 07:41:50;;;;;;;8.80;4.40;;;;;;;;;;5050101;28;20033;-69
2021/11/09 07:44:16;;;;;;;9.80;4.60;;;;;;;;;;5049569;28;20021;-67
2021/11/09 07:46:42;;;;;;;9.85;5.18;;;;;;;;;;5051023;28;20033;-68
2021/11/09 07:49:08;;;;;;;17.35;4.90;;;;;;;;;;5059705;28;20029;-67
2021/11/09 07:51:35;;;;;;;9.15;4.10;;;;;;;;;;5053151;28;20495;-67
2021/11/09 07:54:01;;;;;;;10.95;5.28;;;;;;;;;;5050553;28;20082;-67
2021/11/09 07:56:39;;;;;;;10.90;5.60;;;;;;;;;;5051417;28;20033;-69
2021/11/09 08:01:42;;;;;;;12.73;6.05;;;;;;;;;;5050189;28;20029;-69
2021/11/09 08:04:14;;;;;;;12.02;5.93;;;;;;;;;;5035069;28;20029;-68
2021/11/09 08:06:48;;;;;;;10.57;5.60;;;;;;;;;;5060375;28;20021;-68
2021/11/09 08:09:30;;;;;;;10.55;4.85;;;;;;;;;;5049386;28;20029;-67
2021/11/09 08:11:57;;;;;;;9.95;4.47;;;;;;;;;;5047905;28;20139;-68
2021/11/09 08:14:23;;;;;;;10.38;5.97;;;;;;;;;;5046577;28;20040;-68
2021/11/09 08:16:49;;;;;;;12.88;5.95;;;;;;;;;;5048742;28;20033;-67
2021/11/09 08:19:18;;;;;;;9.60;5.85;;;;;;;;;;5048265;28;20561;-68
2021/11/09 08:21:44;;;;;;;9.93;5.63;;;;;;;;;;5051198;28;20032;-67
2021/11/09 08:24:11;;;;;;;8.45;5.03;;;;;;;;;;5050621;28;20397;-67
2021/11/09 08:26:37;;;;;;;8.18;4.95;;;;;;;;;;5050676;28;20028;-67
2021/11/09 08:29:04;;;;;;;9.57;4.57;;;;;;;;;;5049002;28;20441;-67
2021/11/09 08:31:32;;;;;;;7.80;3.97;;;;;;;;;;5049536;28;20077;-67
2021/11/09 08:33:58;;;;;;;9.27;3.83;;;;;;;;;;5049634;28;20053;-66
2021/11/09 08:36:29;;;;;;;7.93;3.65;;;;;;;;;;5060447;28;21006;-67
2021/11/09 08:38:56;;;;;;;10.73;3.97;;;;;;;;;;5048824;28;20461;-66
2021/11/09 08:41:26;;;;;;;11.15;4.28;;;;;;;;;;5049350;28;20050;-67
2021/11/09 08:44:04;;;;;;;8.82;4.22;;;;;;;;;;5049268;28;20346;-67
2021/11/09 08:46:34;;;;;;;11.90;4.72;;;;;;;;;;5049834;28;20503;-67
2021/11/09 08:49:00;;;;;;;12.52;5.45;;;;;;;;;;5049401;28;20400;-67
2021/11/09 08:51:27;;;;;;;10.20;4.97;;;;;;;;;;5052533;28;20477;-67
2021/11/09 08:54:09;;;;;;;10.43;5.10;;;;;;;;;;5049593;28;20040;-68
2021/11/09 09:04:18;;;;;;;10.57;5.10;;;;;;;;;;5049005;28;20069;-67
2021/11/09 09:06:45;;;;;;;13.43;5.05;;;;;;;;;;5050841;28;20565;-67
2021/11/09 09:09:12;;;;;;;13.07;5.25;;;;;;;;;;5048759;28;20098;-67
2021/11/09 09:11:38;;;;;;;10.93;4.88;;;;;;;;;;5048343;28;20033;-67
2021/11/09 09:14:05;;;;;;;10.32;4.45;;;;;;;;;;5048561;28;20029;-67
2021/11/09 09:16:33;;;;;;;10.85;4.45;;;;;;;;;;5047214;28;20485;-67
2021/11/09 09:19:01;;;;;;;9.82;4.40;;;;;;;;;;5048561;28;20067;-68
2021/11/09 09:21:38;;;;;;;13.38;4.70;;;;;;;;;;5051606;28;20024;-68
2021/11/09 09:29:58;;;;;;;10.27;4.72;;;;;;;;;;5048242;28;20094;-69
2021/11/09 09:56:59;;;;;;;10.55;3.33;;;;;;;;;;5047287;28;20039;-67
2021/11/09 09:59:27;;;;;;;5.85;2.33;;;;;;;;;;5047114;28;20067;-68
2021/11/09 10:02:08;;;;;;;6.95;2.97;;;;;;;;;;5047475;28;20500;-67
2021/11/09 10:05:00;;;;;;;8.05;3.30;;;;;;;;;;5046854;28;20033;-67
2021/11/09 10:07:30;;;;;;;5.07;2.30;;;;;;;;;;5041921;28;20025;-68
2021/11/09 10:09:57;;;;;;;6.20;2.38;;;;;;;;;;5048104;28;20044;-69
2021/11/09 10:12:34;;;;;;;4.45;1.80;;;;;;;;;;5050077;28;20017;-69
2021/11/09 10:15:10;;;;;;;4.97;2.10;;;;;;;;;;5049465;28;20043;-69
2021/11/09 10:17:38;;;;;;;8.02;1.60;;;;;;;;;;5047787;28;20028;-68
2021/11/09 10:20:16;;;;;;;3.42;1.70;;;;;;;;;;5047070;28;20029;-69
2021/11/09 10:22:43;;;;;;;3.15;1.63;;;;;;;;;;5047267;28;20029;-69
2021/11/09 10:25:20;;;;;;;4.57;1.73;;;;;;;;;;5047236;28;20104;-69
2021/11/09 10:27:48;;;;;;;3.55;1.60;;;;;;;;;;5049771;28;20017;-69
2021/11/09 10:30:16;;;;;;;6.00;1.52;;;;;;;;;;5048918;28;20029;-69
2021/11/09 10:32:42;;;;;;;;;;;;;;;;;;5047188;28;20025;-66
2021/11/09 10:35:09;;;;;;;4.93;1.50;;;;;;;;;;5047355;28;19917;-69
2021/11/09 10:37:37;;;;;;;2.38;1.20;;;;;;;;;;5047061;28;20404;-69
2021/11/09 10:40:12;;;;;;;5.18;1.58;;;;;;;;;;5031485;28;20021;-69
2021/11/09 10:42:39;;;;;;;3.85;1.38;;;;;;;;;;5049734;28;20052;-68
2021/11/09 10:45:11;;;;;;;3.65;1.50;;;;;;;;;;5048549;28;20033;-69
2021/11/09 10:47:38;;;;;;;3.40;1.25;;;;;;;;;;5047321;28;20052;-69
2021/11/09 10:50:06;;;;;;;3.43;1.50;;;;;;;;;;5047102;28;20425;-69
2021/11/09 10:52:35;;;;;;;3.05;1.30;;;;;;;;;;5047212;28;20290;-68
2021/11/09 11:06:18;;;;;;;3.00;1.52;;;;;;;;;;5046988;28;20051;-69
2021/11/09 11:08:48;;;;;;;3.72;1.85;;;;;;;;;;5045556;28;20039;-69
2021/11/09 11:11:19;;;;;;;4.50;1.13;;;;;;;;;;5046524;28;20029;-68
2021/11/09 11:13:46;;;;;;;4.28;1.80;;;;;;;;;;5046664;28;20044;-68
2021/11/09 11:16:13;;;;;;;4.40;1.60;;;;;;;;;;5046994;28;20157;-69
2021/11/09 11:18:44;;;;;;;4.18;1.60;;;;;;;;;;5049120;28;20033;-67
2021/11/09 11:21:11;;;;;;;2.20;1.20;;;;;;;;;;5051713;28;20460;-67
2021/11/09 11:23:39;;;;;;;2.23;1.17;;;;;;;;;;5050785;28;20025;-67
2021/11/09 11:26:06;;;;;;;3.60;1.40;;;;;;;;;;5043362;28;20021;-67
2021/11/09 11:28:33;;;;;;;6.07;1.50;;;;;;;;;;5050061;28;20017;-66
2021/11/09 11:31:00;;;;;;;4.28;1.60;;;;;;;;;;5050772;28;20028;-67
2021/11/09 11:33:26;;;;;;;4.38;1.73;;;;;;;;;;5046653;28;21025;-67
2021/11/09 11:35:53;;;;;;;4.47;1.40;;;;;;;;;;5040786;28;20033;-66
2021/11/09 11:38:22;;;;;;;7.32;1.80;;;;;;;;;;5047651;28;20029;-67
2021/11/09 11:40:49;;;;;;;3.70;1.52;;;;;;;;;;5048548;28;20079;-65
2021/11/09 11:43:15;;;;;;;2.85;1.30;;;;;;;;;;5052631;28;20404;-67
2021/11/09 11:45:50;;;;;;;4.35;1.88;;;;;;;;;;5042955;28;20021;-67
2021/11/09 11:48:16;;;;;;;3.03;1.40;;;;;;;;;;5038774;28;20033;-66
2021/11/09 11:50:43;;;;;;;3.30;1.50;;;;;;;;;;5048888;28;20431;-65
2021/11/09 11:53:09;;;;;;;2.90;1.50;;;;;;;;;;5043661;28;20588;-65
2021/11/09 11:55:35;;;;;;;3.90;1.65;;;;;;;;;;5044630;28;20043;-66
2021/11/09 11:58:07;;;;;;;2.70;1.52;;;;;;;;;;5039251;28;20577;-66
2021/11/09 12:00:56;;;;;;;3.78;1.80;;;;;;;;;;5057111;28;20048;-66
2021/11/09 12:03:23;;;;;;;4.25;1.98;;;;;;;;;;5055294;28;20023;-66
2021/11/09 12:05:49;;;;;;;3.40;1.70;;;;;;;;;;5053700;28;20035;-66
2021/11/09 12:08:36;;;;;;;6.10;1.92;;;;;;;;;;5047351;28;20036;-66
2021/11/09 12:11:03;;;;;;;3.70;1.67;;;;;;;;;;5043957;28;20045;-66
2021/11/09 12:13:29;;;;;;;4.70;2.15;;;;;;;;;;5050044;28;20543;-66
2021/11/09 12:15:55;;;;;;;5.20;1.50;;;;;;;;;;5051648;28;20029;-67
2021/11/09 12:18:42;;;;;;;3.78;1.90;;;;;;;;;;5052874;28;20476;-67
2021/11/09 12:21:20;;;;;;;6.50;2.10;;;;;;;;;;5051141;28;20028;-68
2021/11/09 12:24:05;;;;;;;2.78;1.60;;;;;;;;;;5051099;28;20075;-66
2021/11/09 12:26:38;;;;;;;3.67;1.58;;;;;;;;;;5050644;28;20028;-66
2021/11/09 12:29:24;;;;;;;4.57;1.75;;;;;;;;;;5049307;28;20508;-68
2021/11/09 12:31:50;;;;;;;4.47;1.98;;;;;;;;;;5046671;28;20376;-68
2021/11/09 12:34:16;;;;;;;4.60;1.77;;;;;;;;;;5051301;28;20052;-67
2021/11/09 12:36:42;;;;;;;3.92;1.77;;;;;;;;;;5054213;28;20021;-67
2021/11/09 12:39:19;;;;;;;4.30;1.73;;;;;;;;;;5050322;28;20036;-67
2021/11/09 12:41:53;;;;;;;3.65;1.58;;;;;;;;;;5047937;28;20063;-67
2021/11/09 12:44:31;;;;;;;6.95;2.80;;;;;;;;;;5049057;28;20033;-67
2021/11/09 12:47:00;;;;;;;;;;;;;;;;;;5055350;28;20025;-65
2021/11/09 12:49:34;;;;;;;7.78;2.80;;;;;;;;;;5049966;28;19917;-67
2021/11/09 12:52:01;;;;;;;7.18;2.50;;;;;;;;;;5047690;28;20029;-67
2021/11/09 12:54:29;;;;;;;11.30;3.05;;;;;;;;;;5054220;28;20029;-67
2021/11/09 12:57:03;;;;;;;9.23;2.67;;;;;;;;;;5048496;28;20025;-67
2021/11/09 12:59:38;;;;;;;8.32;2.38;;;;;;;;;;5048268;28;20396;-67
2021/11/09 13:09:34;;;;;;;5.55;2.05;;;;;;;;;;5048292;28;20083;-67
2021/11/09 13:12:03;;;;;;;5.20;2.45;;;;;;;;;;5050235;28;20388;-67
2021/11/09 13:14:50;;;;;;;5.03;2.45;;;;;;;;;;5049126;28;20080;-67
2021/11/09 13:17:18;;;;;;;6.70;2.33;;;;;;;;;;5049563;28;20385;-67
2021/11/09 13:19:45;;;;;;;6.95;2.00;;;;;;;;;;5045526;28;20036;-67
2021/11/09 13:22:13;;;;;;;5.97;2.60;;;;;;;;;;5046649;28;20026;-67
2021/11/09 13:24:42;;;;;;;4.63;2.25;;;;;;;;;;5049101;28;20064;-67
2021/11/09 13:27:09;;;;;;;4.80;2.10;;;;;;;;;;5048769;28;20024;-67
2021/11/09 13:29:44;;;;;;;5.25;2.40;;;;;;;;;;5046136;28;20317;-66
2021/11/09 13:32:11;;;;;;;4.90;2.58;;;;;;;;;;5047443;28;20362;-67
2021/11/09 13:34:37;;;;;;;5.93;2.40;;;;;;;;;;5048282;28;20098;-67
2021/11/09 13:37:03;;;;;;;5.88;2.42;;;;;;;;;;5048638;28;20040;-67
2021/11/09 13:39:29;;;;;;;5.38;2.38;;;;;;;;;;5051054;28;20115;-66
2021/11/09 13:41:55;;;;;;;5.53;2.33;;;;;;;;;;5047909;28;20033;-67
2021/11/09 13:44:22;;;;;;;5.88;2.67;;;;;;;;;;5047576;28;20507;-67
2021/11/09 13:46:48;;;;;;;7.45;2.60;;;;;;;;;;5048103;28;20033;-67
2021/11/09 13:49:16;;;;;;;5.10;2.45;;;;;;;;;;5047676;28;20026;-66
2021/11/09 13:51:59;;;;;;;5.43;2.60;;;;;;;;;;5050266;28;20074;-67
2021/11/09 13:54:28;;;;;;;6.80;2.78;;;;;;;;;;5050857;28;20152;-68
2021/11/09 13:56:55;;;;;;;6.13;2.53;;;;;;;;;;5047703;28;20143;-68
2021/11/09 13:59:25;;;;;;;8.57;3.05;;;;;;;;;;5047605;28;20090;-67
2021/11/09 14:01:59;;;;;;;5.03;2.60;;;;;;;;;;5047107;28;20025;-67
2021/11/09 14:07:17;;;;;;;6.95;2.72;;;;;;;;;;5048306;28;20661;-67
2021/11/09 14:17:48;;;;;;;7.32;2.80;;;;;;;;;;5047853;28;20044;-67
2021/11/09 14:20:16;;;;;;;6.45;2.90;;;;;;;;;;5047635;28;20414;-67
2021/11/09 14:22:45;;;;;;;5.57;2.35;;;;;;;;;;5047341;28;20020;-67
2021/11/09 14:25:11;;;;;;;6.82;2.95;;;;;;;;;;5047308;28;20105;-68
2021/11/09 14:27:46;;;;;;;5.30;2.95;;;;;;;;;;5050189;28;20017;-67
2021/11/09 14:30:15;;;;;;;5.97;2.40;;;;;;;;;;5050885;28;20033;-66
2021/11/09 14:32:41;;;;;;;8.10;3.15;;;;;;;;;;5046692;28;20067;-66
2021/11/09 14:35:23;;;;;;;4.88;2.58;;;;;;;;;;5047332;28;20099;-66
2021/11/09 14:38:02;;;;;;;6.28;2.55;;;;;;;;;;5047577;28;20051;-66
2021/11/09 14:41:01;;;;;;;5.80;2.60;;;;;;;;;;5047586;28;20044;-67
2021/11/09 14:46:14;;;;;;;5.85;2.50;;;;;;;;;;5048312;28;20041;-67
2021/11/09 14:51:18;;;;;;;7.35;2.63;;;;;;;;;;5049527;28;20048;-67
2021/11/09 14:56:19;;;;;;;6.60;2.80;;;;;;;;;;5049018;28;20056;-67
2021/11/09 14:58:46;;;;;;;6.82;3.08;;;;;;;;;;5051084;28;20052;-67
2021/11/09 15:01:38;;;;;;;6.53;3.00;;;;;;;;;;5051238;28;20029;-67
2021/11/09 15:04:11;;;;;;;10.13;3.60;;;;;;;;;;5035400;28;20033;-67
2021/11/09 15:28:29;;;;;;;8.02;3.63;;;;;;;;;;5016666;28;20041;-66
2021/11/09 15:31:07;;;;;;;7.28;3.20;;;;;;;;;;5033497;28;20041;-66
2021/11/09 15:33:48;;;;;;;8.05;3.50;;;;;;;;;;5049423;28;20459;-66
2021/11/09 15:38:50;;;;;;;12.45;3.40;;;;;;;;;;5050020;28;20032;-66
2021/11/09 15:41:17;;;;;;;23.45;8.25;;;;;;;;;;5050209;28;20397;-66
2021/11/09 15:43:43;;;;;;;29.40;12.10;;;;;;;;;;5050017;28;20035;-66
2021/11/09 15:46:09;;;;;;;19.63;6.90;;;;;;;;;;5049844;28;20116;-67
2021/11/09 15:48:35;;;;;;;15.63;6.72;;;;;;;;;;5053119;28;20465;-66
2021/11/09 15:51:01;;;;;;;27.08;11.07;;;;;;;;;;5049717;28;20037;-66
2021/11/09 15:53:29;;;;;;;24.35;10.77;;;;;;;;;;5049576;28;20098;-66
2021/11/09 15:55:55;;;;;;;14.07;6.47;;;;;;;;;;5047375;28;20040;-67
2021/11/09 15:58:21;;;;;;;14.32;5.68;;;;;;;;;;5050037;28;20033;-66
2021/11/09 16:00:48;;;;;;;10.07;4.78;;;;;;;;;;5050377;28;20067;-65
2021/11/09 16:03:17;;;;;;;10.15;4.78;;;;;;;;;;5049059;28;20461;-65
2021/11/09 16:05:43;;;;;;;7.53;3.33;;;;;;;;;;5047901;28;20044;-67
2021/11/09 16:08:09;;;;;;;11.50;3.80;;;;;;;;;;5047477;28;20017;-67
2021/11/09 16:10:38;;;;;;;9.32;3.45;;;;;;;;;;5038374;28;20039;-67
2021/11/09 16:13:04;;;;;;;12.38;6.68;;;;;;;;;;5039156;28;20163;-65
2021/11/09 16:15:30;;;;;;;13.82;6.97;;;;;;;;;;5050851;28;20052;-65
2021/11/09 16:17:56;;;;;;;23.08;9.32;;;;;;;;;;5048163;28;20029;-69
2021/11/09 16:20:23;;;;;;;17.55;8.68;;;;;;;;;;5051450;28;20021;-67
2021/11/09 16:22:49;;;;;;;18.48;8.93;;;;;;;;;;5048032;28;20140;-69
2021/11/09 16:25:16;;;;;;;23.50;10.85;;;;;;;;;;5034091;28;20465;-68
2021/11/09 16:27:43;;;;;;;17.77;10.55;;;;;;;;;;5050554;28;20494;-68
2021/11/09 16:30:16;;;;;;;23.67;10.40;;;;;;;;;;5050714;28;20503;-63
2021/11/09 16:32:44;;;;;;;16.67;8.63;;;;;;;;;;5047969;28;20783;-67
2021/11/09 16:35:32;;;;;;;14.02;6.68;;;;;;;;;;5047822;28;20036;-70
2021/11/09 16:38:00;;;;;;;9.45;4.72;;;;;;;;;;5047782;28;20025;-68
2021/11/09 16:40:32;;;;;;;12.02;5.18;;;;;;;;;;5056508;28;20086;-64
2021/11/09 16:43:03;;;;;;;11.23;5.70;;;;;;;;;;5047186;28;20018;-66
2021/11/09 16:45:32;;;;;;;10.20;4.85;;;;;;;;;;5051990;28;20511;-63
2021/11/09 16:48:07;;;;;;;11.90;4.32;;;;;;;;;;5049032;28;20021;-67
2021/11/09 16:53:12;;;;;;;13.93;4.90;;;;;;;;;;5048842;28;20106;-67
2021/11/09 17:03:54;;;;;;;8.77;4.93;;;;;;;;;;5053333;28;20033;-66
2021/11/09 17:06:42;;;;;;;9.43;5.72;;;;;;;;;;5050429;28;20028;-68
2021/11/09 18:20:30;;;;;;;52.22;29.42;;;;;;;;;;5045260;28;20043;-67
2021/11/09 18:22:57;;;;;;;45.87;25.73;;;;;;;;;;5045137;28;20105;-67
2021/11/09 18:25:25;;;;;;;35.05;21.95;;;;;;;;;;5048151;28;20028;-67
2021/11/09 18:27:52;;;;;;;41.00;23.30;;;;;;;;;;5048782;28;20021;-70
2021/11/09 18:30:20;;;;;;;40.65;22.50;;;;;;;;;;5049852;28;20036;-70
2021/11/09 18:32:46;;;;;;;31.25;19.98;;;;;;;;;;5034734;28;20025;-68
2021/11/09 18:35:16;;;;;;;33.20;18.38;;;;;;;;;;5048978;28;20365;-68
2021/11/09 18:37:42;;;;;;;28.70;14.70;;;;;;;;;;5050217;28;20024;-68
2021/11/09 18:40:09;;;;;;;28.45;16.27;;;;;;;;;;5051188;28;20025;-68
2021/11/09 18:42:36;;;;;;;22.35;12.80;;;;;;;;;;5054627;28;20025;-68
2021/11/09 18:45:03;;;;;;;34.40;19.07;;;;;;;;;;5052470;28;20025;-67
2021/11/09 18:47:29;;;;;;;49.00;26.25;;;;;;;;;;5048913;28;20530;-68
2021/11/09 18:49:55;;;;;;;48.60;26.15;;;;;;;;;;5050578;28;20518;-68
2021/11/09 18:52:21;;;;;;;36.70;21.52;;;;;;;;;;5045870;28;20029;-66
2021/11/09 18:54:48;;;;;;;38.28;22.70;;;;;;;;;;5047146;28;20033;-66
2021/11/09 18:57:14;;;;;;;19.13;10.43;;;;;;;;;;5053033;28;20048;-66
2021/11/09 18:59:40;;;;;;;25.23;15.40;;;;;;;;;;5050005;28;20041;-67
2021/11/09 19:02:09;;;;;;;25.63;13.88;;;;;;;;;;5047046;28;20028;-67
2021/11/09 19:04:35;;;;;;;27.30;15.50;;;;;;;;;;5047623;28;20039;-67
2021/11/09 19:07:02;;;;;;;35.08;18.77;;;;;;;;;;5052555;28;20051;-67
2021/11/09 19:09:29;;;;;;;33.22;16.45;;;;;;;;;;5057323;28;20037;-69
2021/11/09 19:11:55;;;;;;;33.97;17.67;;;;;;;;;;5058107;28;20021;-68